M I D A S
Marine Information and Data Acquisition System
Tripno 848 of the Zeeleeuw from 2005-02-18 08:11:09 to 2005-02-18 12:28:13
Back to CruiseResearch ActivitiesStationsMapUnderway DataData graphs

EquipmentUnitsComments
TimeDGPSUTC
LatitudeDGPSDM.mWGS84
LongitudeDGPSDM.mWGS84
SpeedMeteo Stationm/sRelative wind speed
DirectionMeteo StationdegRelative wind direction
TemperatureMeteo Stationdeg CelciusAir temperature
PressureMeteo StationPaAtmospheric pressure
HumidityMeteo Station%Relative humidity
Missing or incorrect values are displayed as -999
Metereological data collected by the RV Zeeleeuw from 2005-02-18 08:12:17 to 2005-02-18 12:34:27
Time Latitude Longitude Speed Direction Temperature Pressure Humidity
2005-02-18 08:13 51°13.602 2°56.085 2.9 103 1.7 102220 99
2005-02-18 08:14 51°13.62 2°56.025 2.7 116 1.7 102230 99
2005-02-18 08:15 51°13.658 2°55.927 2.7 107 1.7 102220 99
2005-02-18 08:16 51°13.703 2°55.818 3.3 150 1.7 102220 99
2005-02-18 08:17 51°13.722 2°55.735 3.7 135 1.7 102220 100
2005-02-18 08:18 51°13.728 2°55.734 3.8 156 1.6 102220 100
2005-02-18 08:19 51°13.732 2°55.72 4.5 251 1.6 102220 100
2005-02-18 08:20 51°13.8 2°55.658 1.9 297 1.7 102220 100
2005-02-18 08:21 51°13.904 2°55.578 3.1 298 1.7 102220 100
2005-02-18 08:22 51°14.019 2°55.492 2.8 331 1.8 102220 100
2005-02-18 08:23 51°14.136 2°55.401 1.8 324 1.8 102220 100
2005-02-18 08:24 51°14.255 2°55.26 4.3 37 1.8 102220 100
2005-02-18 08:25 51°14.36 2°55.064 5.6 316 1.8 102220 100
2005-02-18 08:26 51°14.461 2°54.859 9.2 294 1.8 102210 100
2005-02-18 08:27 51°14.502 2°54.623 9.4 310 1.8 102210 100
2005-02-18 08:28 51°14.505 2°54.388 9.4 327 1.8 102200 100
2005-02-18 08:29 51°14.45 2°54.182 13 331 1.8 102180 100
2005-02-18 08:30 51°14.368 2°54.001 11 338 1.8 102170 100
2005-02-18 08:31 51°14.305 2°53.86 8.7 338 1.8 102190 100
2005-02-18 08:32 51°14.265 2°53.808 7.5 337 1.9 102180 100
2005-02-18 08:33 51°14.239 2°53.797 8.1 353 1.9 102180 100
2005-02-18 08:34 51°14.226 2°53.8 6.2 344 1.9 102180 100
2005-02-18 08:35 51°14.222 2°53.807 6.8 332 1.9 102180 100
2005-02-18 08:36 51°14.222 2°53.808 7.4 325 1.9 102170 100
2005-02-18 08:37 51°14.175 2°53.682 8.9 335 1.8 102160 100
2005-02-18 08:38 51°14.089 2°53.457 13.6 337 1.8 102150 100
2005-02-18 08:39 51°13.984 2°53.196 11 338 1.8 102150 100
2005-02-18 08:40 51°13.877 2°52.925 12.4 341 1.8 102140 100
2005-02-18 08:41 51°13.768 2°52.649 12.6 343 1.8 102140 100
2005-02-18 08:42 51°13.657 2°52.371 11.5 338 1.9 102140 100
2005-02-18 08:43 51°13.548 2°52.098 12 -999 1.9 102140 100
2005-02-18 08:44 51°13.439 2°51.821 12.3 342 1.9 102140 100
2005-02-18 08:45 51°13.33 2°51.54 11.9 340 1.9 102140 100
2005-02-18 08:46 51°13.228 2°51.254 12.1 340 1.9 102130 100
2005-02-18 08:47 51°13.126 2°50.972 12.5 336 1.9 102140 100
2005-02-18 08:48 51°13.023 2°50.684 13.5 331 1.9 102130 100
2005-02-18 08:49 51°12.922 2°50.402 13.1 332 1.9 102120 100
2005-02-18 08:50 51°12.821 2°50.118 12.9 336 1.9 102120 100
2005-02-18 08:51 51°12.718 2°49.831 13.8 342 2 102130 100
2005-02-18 08:52 51°12.616 2°49.546 13.1 337 2 102130 100
2005-02-18 08:53 51°12.516 2°49.263 11.9 340 2 102130 100
2005-02-18 08:54 51°12.414 2°48.977 12.5 341 2 102130 100
2005-02-18 08:55 51°12.312 2°48.691 12.1 343 2 102130 100
2005-02-18 08:56 51°12.209 2°48.405 11.8 337 2 102120 100
2005-02-18 08:57 51°12.105 2°48.12 13.1 338 2.1 102130 100
2005-02-18 08:58 51°12.002 2°47.831 11.4 336 2.1 102130 100
2005-02-18 08:59 51°11.898 2°47.541 12.5 340 2.2 102130 100
2005-02-18 09:00 51°11.793 2°47.253 13.2 338 2.2 102130 100
2005-02-18 09:01 51°11.686 2°46.96 15.2 340 2.2 102130 100
2005-02-18 09:02 51°11.601 2°46.653 12.6 342 2.3 102120 100
2005-02-18 09:03 51°11.522 2°46.344 12.6 337 2.3 102120 100
2005-02-18 09:04 51°11.441 2°46.031 12.6 342 2.3 102130 100
2005-02-18 09:05 51°11.361 2°45.723 13.1 345 2.3 102130 100
2005-02-18 09:06 51°11.282 2°45.414 13.1 -999 2.3 102130 100
2005-02-18 09:07 51°11.203 2°45.107 11.8 334 2.3 102120 100
2005-02-18 09:08 51°11.135 2°44.79 11.6 338 2.3 102130 100
2005-02-18 09:09 51°11.065 2°44.477 12 335 2.3 102120 100
2005-02-18 09:10 51°10.995 2°44.162 12.2 338 2.3 102120 100
2005-02-18 09:11 51°10.924 2°43.847 10.8 336 2.4 102120 100
2005-02-18 09:12 51°10.856 2°43.531 12.3 345 2.4 102120 100
2005-02-18 09:13 51°10.785 2°43.217 12.4 338 2.5 102110 100
2005-02-18 09:14 51°10.714 2°42.904 12.8 339 2.5 102110 100
2005-02-18 09:15 51°10.643 2°42.591 13 336 2.5 102110 100
2005-02-18 09:16 51°10.57 2°42.269 13.3 339 2.5 102110 100
2005-02-18 09:17 51°10.499 2°41.949 12.2 341 2.6 102100 99
2005-02-18 09:18 51°10.418 2°41.636 13.3 340 2.6 102110 99
2005-02-18 09:19 51°10.329 2°41.328 12.6 342 2.7 102110 99
2005-02-18 09:20 51°10.238 2°41.022 13 345 2.7 102100 99
2005-02-18 09:21 51°10.149 2°40.713 12.2 343 2.8 102110 98
2005-02-18 09:22 51°10.059 2°40.405 12.1 341 2.8 102100 98
2005-02-18 09:23 51°9.976 2°40.092 12.7 334 2.8 102110 98
2005-02-18 09:24 51°9.954 2°39.748 11.9 328 2.9 102100 98
2005-02-18 09:25 51°9.934 2°39.406 12.7 330 2.9 102100 98
2005-02-18 09:26 51°9.914 2°39.066 12.8 330 2.9 102100 98
2005-02-18 09:27 51°9.893 2°38.729 12.6 332 2.9 102100 98
2005-02-18 09:28 51°9.87 2°38.393 12.1 333 2.9 102130 97
2005-02-18 09:29 51°9.849 2°38.057 11.1 335 2.9 102090 97
2005-02-18 09:30 51°9.825 2°37.719 12.3 336 3 102100 97
2005-02-18 09:31 51°9.801 2°37.385 12.2 333 3 102090 98
2005-02-18 09:32 51°9.785 2°37.044 13.1 326 3 102090 97
2005-02-18 09:33 51°9.832 2°36.71 10.3 323 3 102090 97
2005-02-18 09:34 51°9.896 2°36.384 12.6 322 3 102090 97
2005-02-18 09:35 51°9.968 2°36.054 11.6 325 3 102090 97
2005-02-18 09:36 51°10.082 2°35.755 10.2 311 3.1 102100 97
2005-02-18 09:37 51°10.253 2°35.523 8.1 311 3.1 102110 97
2005-02-18 09:38 51°10.457 2°35.364 7.4 303 3.1 102120 98
2005-02-18 09:39 51°10.675 2°35.343 1 357 3.2 102140 98
2005-02-18 09:40 51°10.865 2°35.556 1.7 57 3.2 102130 98
2005-02-18 09:41 51°11.053 2°35.784 1.6 -999 3.2 102130 98
2005-02-18 09:42 51°11.219 2°36.057 2.4 61 3.2 102130 98
2005-02-18 09:43 51°11.386 2°36.332 2.3 79 3.2 102130 98
2005-02-18 09:44 51°11.555 2°36.605 2.8 82 3.3 102120 98
2005-02-18 09:45 51°11.721 2°36.879 2.4 73 3.2 102120 98
2005-02-18 09:46 51°11.889 2°37.154 2.5 86 3.3 102120 98
2005-02-18 09:47 51°12.057 2°37.43 2.7 106 3.3 102120 98
2005-02-18 09:48 51°12.226 2°37.699 2 102 3.3 102120 98
2005-02-18 09:49 51°12.409 2°37.937 0.9 356 3.3 102120 98
2005-02-18 09:50 51°12.623 2°38.096 1.7 246 3.2 102120 98
2005-02-18 09:51 51°12.837 2°38.251 1.9 318 3.2 102120 98
2005-02-18 09:52 51°13.057 2°38.355 1.3 257 3.3 102120 98
2005-02-18 09:53 51°13.28 2°38.459 2.3 314 3.3 102110 98
2005-02-18 09:54 51°13.492 2°38.558 2.7 -999 3.3 102120 99
2005-02-18 09:55 51°13.611 2°38.61 4.9 209 3.4 102130 99
2005-02-18 09:56 51°13.671 2°38.669 7.9 154 3.4 102130 99
2005-02-18 09:57 51°13.687 2°38.691 7.4 128 3.4 102110 98
2005-02-18 09:58 51°13.699 2°38.696 8.2 132 3.3 102110 98
2005-02-18 09:59 51°13.713 2°38.699 7.3 125 3.3 102110 99
2005-02-18 10:00 51°13.725 2°38.697 8.6 141 3.3 102110 98
2005-02-18 10:01 51°13.732 2°38.68 7.4 150 3.3 102110 98
2005-02-18 10:02 51°13.738 2°38.662 8 151 3.4 102110 99
2005-02-18 10:03 51°13.755 2°38.691 6.7 127 3.4 102120 99
2005-02-18 10:04 51°13.764 2°38.806 7.1 113 3.4 102120 99
2005-02-18 10:05 51°13.759 2°38.874 7.6 95 3.4 102120 99
2005-02-18 10:06 51°13.757 2°38.911 8.7 85 3.4 102110 99
2005-02-18 10:07 51°13.724 2°39.015 8.6 82 3.3 102110 99
2005-02-18 10:08 51°13.744 2°39.023 8.6 86 3.4 102120 99
2005-02-18 10:09 51°13.658 2°39.065 12.8 26 3.3 102110 98
2005-02-18 10:10 51°13.518 2°39.06 11.1 17 3.4 102120 99
2005-02-18 10:11 51°13.45 2°38.99 8.5 355 3.4 102120 99
2005-02-18 10:12 51°13.456 2°39.003 6.4 335 3.5 102120 99
2005-02-18 10:13 51°13.472 2°39.036 6.8 326 3.5 102120 99
2005-02-18 10:14 51°13.478 2°39.041 7.6 331 3.5 102110 99
2005-02-18 10:15 51°13.481 2°39.03 8.4 330 3.5 102120 99
2005-02-18 10:16 51°13.485 2°39.023 8.8 339 3.5 102120 98
2005-02-18 10:17 51°13.486 2°39.021 7.9 -999 3.5 102110 98
2005-02-18 10:18 51°13.486 2°39.026 7.5 8 3.6 102110 99
2005-02-18 10:19 51°13.484 2°39.03 7.9 21 3.5 102110 98
2005-02-18 10:20 51°13.481 2°39.034 7.9 11 3.5 102110 98
2005-02-18 10:21 51°13.48 2°39.035 7.6 3 3.6 102110 99
2005-02-18 10:22 51°13.482 2°39.037 8.7 343 3.6 102110 99
2005-02-18 10:23 51°13.476 2°39.015 9.5 337 3.6 102100 99
2005-02-18 10:24 51°13.475 2°38.99 7.9 321 3.6 102090 99
2005-02-18 10:25 51°13.483 2°39.001 7.6 302 3.6 102100 99
2005-02-18 10:26 51°13.488 2°39.018 7.4 319 3.6 102110 99
2005-02-18 10:27 51°13.482 2°39.015 7.2 2 3.6 102100 99
2005-02-18 10:28 51°13.472 2°39.004 7.8 3 3.6 102110 99
2005-02-18 10:29 51°13.459 2°38.992 7.7 1 3.6 102110 99
2005-02-18 10:30 51°13.446 2°38.978 7.3 360 3.7 102110 99
2005-02-18 10:31 51°13.438 2°38.971 8.4 3 3.7 102110 99
2005-02-18 10:32 51°13.414 2°38.961 8.6 36 3.7 102100 99
2005-02-18 10:33 51°13.383 2°38.981 9.4 43 3.6 102090 99
2005-02-18 10:34 51°13.324 2°39.003 9.8 57 3.6 102100 99
2005-02-18 10:35 51°13.293 2°39.141 5.9 134 3.6 102080 99
2005-02-18 10:36 51°13.396 2°39.243 3.8 261 3.6 102100 99
2005-02-18 10:37 51°13.58 2°39.269 4.4 271 3.6 102090 99
2005-02-18 10:38 51°13.804 2°39.286 6.4 289 3.7 102070 100
2005-02-18 10:39 51°14.018 2°39.182 9.5 310 3.7 102060 100
2005-02-18 10:40 51°14.155 2°38.91 11.5 323 3.7 102040 100
2005-02-18 10:41 51°14.223 2°38.577 14 337 3.8 102040 100
2005-02-18 10:42 51°14.187 2°38.234 14.3 347 3.8 102030 100
2005-02-18 10:43 51°14.144 2°37.895 13.8 343 3.9 102030 100
2005-02-18 10:44 51°14.105 2°37.548 13.3 347 3.9 102040 100
2005-02-18 10:45 51°14.07 2°37.212 13.8 345 4 102030 100
2005-02-18 10:46 51°14.039 2°36.875 14.2 -999 4 102030 100
2005-02-18 10:47 51°14.007 2°36.531 14.2 343 4.1 102030 100
2005-02-18 10:48 51°13.977 2°36.189 13.6 349 4.1 102030 100
2005-02-18 10:49 51°13.95 2°35.848 12.9 -999 4.2 102030 100
2005-02-18 10:50 51°13.94 2°35.496 12.9 341 4.3 102030 100
2005-02-18 10:51 51°13.957 2°35.149 13.6 334 4.4 102040 100
2005-02-18 10:52 51°14.073 2°34.851 11.9 321 4.4 102030 100
2005-02-18 10:53 51°14.26 2°34.637 9.4 228 4.4 102030 100
2005-02-18 10:54 51°14.487 2°34.601 6.5 285 4.4 102050 100
2005-02-18 10:55 51°14.709 2°34.711 3.8 282 4.5 102050 100
2005-02-18 10:56 51°14.918 2°34.877 3.7 277 4.5 102060 100
2005-02-18 10:57 51°15.117 2°35.064 2.5 299 4.5 102060 100
2005-02-18 10:58 51°15.311 2°35.272 2.4 291 4.6 102060 100
2005-02-18 10:59 51°15.505 2°35.468 2.3 277 4.6 102050 100
2005-02-18 11:00 51°15.701 2°35.669 2.7 280 4.6 102050 100
2005-02-18 11:01 51°15.895 2°35.867 3.4 278 4.7 102050 100
2005-02-18 11:02 51°16.093 2°36.063 4.2 293 4.7 102050 100
2005-02-18 11:03 51°16.289 2°36.255 3.7 272 4.7 102050 100
2005-02-18 11:04 51°16.491 2°36.451 2 257 4.7 102070 100
2005-02-18 11:05 51°16.692 2°36.645 2.4 255 4.7 102070 100
2005-02-18 11:06 51°16.893 2°36.843 2.4 257 4.7 102030 100
2005-02-18 11:07 51°17.096 2°37.04 2.8 280 4.7 102030 100
2005-02-18 11:08 51°17.3 2°37.239 3.5 -999 4.7 102040 100
2005-02-18 11:09 51°17.5 2°37.439 2.9 261 4.7 102040 100
2005-02-18 11:10 51°17.7 2°37.639 2.2 269 4.7 102030 100
2005-02-18 11:11 51°17.899 2°37.838 2.8 261 4.7 102040 100
2005-02-18 11:12 51°18.097 2°38.039 2.2 246 4.7 102040 100
2005-02-18 11:13 51°18.299 2°38.236 2.2 255 4.7 102040 100
2005-02-18 11:14 51°18.501 2°38.427 2.5 264 4.7 102030 100
2005-02-18 11:15 51°18.702 2°38.618 2.4 255 4.7 102030 100
2005-02-18 11:16 51°18.903 2°38.816 2.5 253 4.7 102030 100
2005-02-18 11:17 51°19.108 2°39.012 2.5 291 4.7 102020 100
2005-02-18 11:18 51°19.29 2°39.257 2 280 4.7 102030 100
2005-02-18 11:19 51°19.451 2°39.533 1 254 4.7 102040 100
2005-02-18 11:20 51°19.613 2°39.808 1.6 231 4.8 102020 100
2005-02-18 11:21 51°19.773 2°40.077 1.1 250 4.8 102020 100
2005-02-18 11:22 51°19.938 2°40.347 1.9 252 4.8 102020 100
2005-02-18 11:23 51°20.104 2°40.611 1.8 264 4.8 102010 100
2005-02-18 11:24 51°20.267 2°40.878 1.5 263 4.8 102010 100
2005-02-18 11:25 51°20.395 2°41.191 1.7 -999 4.9 102010 100
2005-02-18 11:26 51°20.505 2°41.522 1.1 72 4.9 102010 100
2005-02-18 11:27 51°20.588 2°41.876 5.6 113 4.9 102010 100
2005-02-18 11:28 51°20.553 2°42.241 7 92 4.9 102000 100
2005-02-18 11:29 51°20.512 2°42.61 6.2 88 4.9 102000 100
2005-02-18 11:30 51°20.47 2°42.973 8 89 4.8 102000 100
2005-02-18 11:31 51°20.431 2°43.333 6.9 84 4.8 102000 100
2005-02-18 11:32 51°20.385 2°43.696 8.1 93 4.8 101990 100
2005-02-18 11:33 51°20.338 2°44.055 8.8 87 4.8 101990 100
2005-02-18 11:34 51°20.246 2°44.39 7.1 76 4.7 101990 100
2005-02-18 11:35 51°20.15 2°44.719 7.6 73 4.7 101990 100
2005-02-18 11:36 51°20.053 2°45.05 7.6 75 4.7 101970 100
2005-02-18 11:37 51°19.962 2°45.376 9 67 4.7 101970 100
2005-02-18 11:38 51°19.865 2°45.706 8.5 80 4.6 101970 100
2005-02-18 11:39 51°19.769 2°46.026 7.9 78 4.6 101970 100
2005-02-18 11:40 51°19.67 2°46.35 10 61 4.5 101980 100
2005-02-18 11:41 51°19.574 2°46.674 11.1 65 4.4 101970 100
2005-02-18 11:42 51°19.484 2°46.998 9.8 67 4.3 101970 100
2005-02-18 11:43 51°19.389 2°47.327 9.9 72 4.1 101960 100
2005-02-18 11:44 51°19.291 2°47.648 9.8 68 4.1 101960 100
2005-02-18 11:45 51°19.193 2°47.971 8.6 73 4 101960 100
2005-02-18 11:46 51°19.102 2°48.293 8.7 71 4 101970 100
2005-02-18 11:47 51°19.007 2°48.617 10.1 72 4 101950 100
2005-02-18 11:48 51°18.908 2°48.933 9.2 67 3.9 101950 100
2005-02-18 11:49 51°18.809 2°49.247 9.7 70 3.9 101940 100
2005-02-18 11:50 51°18.705 2°49.556 8 76 3.8 101940 100
2005-02-18 11:51 51°18.595 2°49.862 10.9 60 3.8 101940 100
2005-02-18 11:52 51°18.482 2°50.166 11.2 65 3.7 101940 100
2005-02-18 11:53 51°18.361 2°50.459 11.5 63 3.7 101940 100
2005-02-18 11:54 51°18.242 2°50.754 8.3 75 3.7 101940 100
2005-02-18 11:55 51°18.121 2°51.045 10.8 66 3.7 101940 100
2005-02-18 11:56 51°17.993 2°51.337 11.5 64 3.7 101940 100
2005-02-18 11:57 51°17.862 2°51.623 13 66 3.6 101930 100
2005-02-18 11:58 51°17.728 2°51.899 11.4 58 3.6 101930 100
2005-02-18 11:59 51°17.563 2°52.131 14.2 49 3.6 101940 100
2005-02-18 12:00 51°17.372 2°52.301 12.5 39 3.6 101930 100
2005-02-18 12:01 51°17.162 2°52.389 13.5 35 3.6 101930 100
2005-02-18 12:02 51°16.947 2°52.467 14.2 34 3.5 101930 100
2005-02-18 12:03 51°16.733 2°52.544 15.1 33 3.5 101920 100
2005-02-18 12:04 51°16.516 2°52.622 14.7 35 3.5 101910 100
2005-02-18 12:05 51°16.3 2°52.704 14.6 35 3.5 101910 100
2005-02-18 12:06 51°16.086 2°52.785 14.9 35 3.5 101910 100
2005-02-18 12:07 51°15.872 2°52.87 14.3 32 3.5 101910 100
2005-02-18 12:08 51°15.659 2°52.955 13.8 28 3.5 101910 100
2005-02-18 12:09 51°15.444 2°53.033 14.8 36 3.5 101910 100
2005-02-18 12:10 51°15.236 2°53.138 12.6 40 3.5 101910 100
2005-02-18 12:11 51°15.066 2°53.356 12.3 52 3.4 101900 100
2005-02-18 12:12 51°14.924 2°53.622 10.7 58 3.4 101900 100
2005-02-18 12:13 51°14.831 2°53.833 9.6 58 3.3 101950 100
2005-02-18 12:14 51°14.769 2°53.873 8.1 41 3.2 101960 100
2005-02-18 12:15 51°14.741 2°53.872 7.6 28 3.2 101970 100
2005-02-18 12:16 51°14.691 2°53.848 7.5 12 3.3 101970 100
2005-02-18 12:17 51°14.66 2°53.82 8.5 350 3.3 101950 100
2005-02-18 12:18 51°14.617 2°53.789 9.4 -999 3.3 101950 100
2005-02-18 12:19 51°14.56 2°53.922 7.1 74 3.3 101940 100
2005-02-18 12:20 51°14.521 2°54.205 7.4 66 3.3 101930 100
2005-02-18 12:21 51°14.483 2°54.512 8.4 71 3.3 101930 100
2005-02-18 12:22 51°14.438 2°54.817 9.4 65 3.3 101930 100
2005-02-18 12:23 51°14.354 2°55.093 8.4 53 3.3 101910 100
2005-02-18 12:24 51°14.262 2°55.268 6.3 39 3.3 101940 100
2005-02-18 12:25 51°14.168 2°55.379 5.4 29 3.3 101940 100
2005-02-18 12:26 51°14.068 2°55.454 5.5 29 3.3 101950 100
2005-02-18 12:27 51°13.967 2°55.532 6.1 18 3.3 101940 100
2005-02-18 12:28 51°13.87 2°55.601 4.8 16 3.3 101950 100
2005-02-18 12:29 51°13.784 2°55.679 8.4 21 3.4 101950 100
2005-02-18 12:30 51°13.712 2°55.783 4.7 48 3.4 101960 100
2005-02-18 12:31 51°13.656 2°55.911 4.2 56 3.4 101960 100
2005-02-18 12:32 51°13.619 2°56.012 2.3 12 3.4 101960 100
2005-02-18 12:33 51°13.6 2°56.085 3.1 61 3.4 101950 100
2005-02-18 12:34 51°13.595 2°56.103 4.1 85 3.4 101950 100